sensor_id;sensor_type;location;lat;lon;timestamp;P1;durP1;ratioP1;P2;durP2;ratioP2
19016;SDS011;9641;51.494;6.670;2024-01-30T00:02:18;14.43;;;8.77;;
19016;SDS011;9641;51.494;6.670;2024-01-30T00:04:45;15.03;;;9.43;;
19016;SDS011;9641;51.494;6.670;2024-01-30T00:07:12;17.50;;;9.23;;
19016;SDS011;9641;51.494;6.670;2024-01-30T00:09:38;14.83;;;8.90;;
19016;SDS011;9641;51.494;6.670;2024-01-30T00:12:10;15.40;;;9.30;;
19016;SDS011;9641;51.494;6.670;2024-01-30T00:14:37;13.77;;;9.40;;
19016;SDS011;9641;51.494;6.670;2024-01-30T00:17:03;14.27;;;9.33;;
19016;SDS011;9641;51.494;6.670;2024-01-30T00:19:32;13.87;;;9.23;;
19016;SDS011;9641;51.494;6.670;2024-01-30T00:22:03;15.10;;;9.57;;
19016;SDS011;9641;51.494;6.670;2024-01-30T00:24:30;13.70;;;9.33;;
19016;SDS011;9641;51.494;6.670;2024-01-30T00:26:58;14.10;;;9.33;;
19016;SDS011;9641;51.494;6.670;2024-01-30T00:29:25;17.53;;;9.87;;
19016;SDS011;9641;51.494;6.670;2024-01-30T00:31:55;18.10;;;11.00;;
19016;SDS011;9641;51.494;6.670;2024-01-30T00:34:25;15.00;;;9.73;;
19016;SDS011;9641;51.494;6.670;2024-01-30T00:36:54;18.73;;;10.07;;
19016;SDS011;9641;51.494;6.670;2024-01-30T00:39:21;18.30;;;10.63;;
19016;SDS011;9641;51.494;6.670;2024-01-30T00:41:47;15.27;;;9.80;;
19016;SDS011;9641;51.494;6.670;2024-01-30T00:44:14;20.50;;;10.23;;
19016;SDS011;9641;51.494;6.670;2024-01-30T00:46:41;17.00;;;10.30;;
19016;SDS011;9641;51.494;6.670;2024-01-30T00:49:10;17.30;;;10.23;;
19016;SDS011;9641;51.494;6.670;2024-01-30T00:51:36;17.90;;;10.30;;
19016;SDS011;9641;51.494;6.670;2024-01-30T00:54:05;16.60;;;9.93;;
19016;SDS011;9641;51.494;6.670;2024-01-30T00:56:33;16.37;;;10.50;;
19016;SDS011;9641;51.494;6.670;2024-01-30T00:59:00;14.27;;;9.83;;
19016;SDS011;9641;51.494;6.670;2024-01-30T01:01:26;17.70;;;10.23;;
19016;SDS011;9641;51.494;6.670;2024-01-30T01:03:53;16.70;;;10.47;;
19016;SDS011;9641;51.494;6.670;2024-01-30T01:06:20;19.13;;;10.43;;
19016;SDS011;9641;51.494;6.670;2024-01-30T01:08:47;15.67;;;10.07;;
19016;SDS011;9641;51.494;6.670;2024-01-30T01:11:15;21.13;;;10.93;;
19016;SDS011;9641;51.494;6.670;2024-01-30T01:13:42;22.77;;;11.27;;
19016;SDS011;9641;51.494;6.670;2024-01-30T01:16:09;19.90;;;10.97;;
19016;SDS011;9641;51.494;6.670;2024-01-30T01:18:36;23.00;;;12.43;;
19016;SDS011;9641;51.494;6.670;2024-01-30T01:21:03;19.23;;;10.70;;
19016;SDS011;9641;51.494;6.670;2024-01-30T01:23:31;22.20;;;11.10;;
19016;SDS011;9641;51.494;6.670;2024-01-30T01:25:57;20.40;;;11.27;;
19016;SDS011;9641;51.494;6.670;2024-01-30T01:28:27;21.87;;;11.40;;
19016;SDS011;9641;51.494;6.670;2024-01-30T01:30:55;20.13;;;11.90;;
19016;SDS011;9641;51.494;6.670;2024-01-30T01:33:25;22.40;;;11.63;;
19016;SDS011;9641;51.494;6.670;2024-01-30T01:35:52;18.10;;;10.93;;
19016;SDS011;9641;51.494;6.670;2024-01-30T01:38:19;21.20;;;10.77;;
19016;SDS011;9641;51.494;6.670;2024-01-30T01:40:45;19.60;;;11.27;;
19016;SDS011;9641;51.494;6.670;2024-01-30T01:43:12;16.77;;;11.20;;
19016;SDS011;9641;51.494;6.670;2024-01-30T01:45:41;18.03;;;10.50;;
19016;SDS011;9641;51.494;6.670;2024-01-30T01:48:08;17.43;;;10.13;;
19016;SDS011;9641;51.494;6.670;2024-01-30T01:50:36;17.53;;;10.43;;
19016;SDS011;9641;51.494;6.670;2024-01-30T01:53:03;17.87;;;10.30;;
19016;SDS011;9641;51.494;6.670;2024-01-30T01:55:31;19.87;;;11.80;;
19016;SDS011;9641;51.494;6.670;2024-01-30T01:57:58;22.83;;;11.03;;
19016;SDS011;9641;51.494;6.670;2024-01-30T02:00:25;21.97;;;11.30;;
19016;SDS011;9641;51.494;6.670;2024-01-30T02:02:54;19.50;;;10.83;;
19016;SDS011;9641;51.494;6.670;2024-01-30T02:05:22;21.53;;;11.40;;
19016;SDS011;9641;51.494;6.670;2024-01-30T02:07:50;20.37;;;10.70;;
19016;SDS011;9641;51.494;6.670;2024-01-30T02:10:17;20.43;;;11.73;;
19016;SDS011;9641;51.494;6.670;2024-01-30T02:12:44;16.40;;;10.90;;
19016;SDS011;9641;51.494;6.670;2024-01-30T02:15:13;24.07;;;11.20;;
19016;SDS011;9641;51.494;6.670;2024-01-30T02:17:40;21.43;;;10.93;;
19016;SDS011;9641;51.494;6.670;2024-01-30T02:20:09;19.10;;;11.27;;
19016;SDS011;9641;51.494;6.670;2024-01-30T02:22:39;17.40;;;10.43;;
19016;SDS011;9641;51.494;6.670;2024-01-30T02:25:07;21.03;;;11.97;;
19016;SDS011;9641;51.494;6.670;2024-01-30T02:27:34;23.10;;;11.80;;
19016;SDS011;9641;51.494;6.670;2024-01-30T02:30:01;19.70;;;12.07;;
19016;SDS011;9641;51.494;6.670;2024-01-30T02:32:28;20.20;;;11.63;;
19016;SDS011;9641;51.494;6.670;2024-01-30T02:34:55;25.30;;;12.00;;
19016;SDS011;9641;51.494;6.670;2024-01-30T02:37:22;23.57;;;11.90;;
19016;SDS011;9641;51.494;6.670;2024-01-30T02:39:51;21.07;;;11.87;;
19016;SDS011;9641;51.494;6.670;2024-01-30T02:42:17;18.70;;;11.43;;
19016;SDS011;9641;51.494;6.670;2024-01-30T02:44:45;22.33;;;12.03;;
19016;SDS011;9641;51.494;6.670;2024-01-30T02:47:12;21.70;;;11.90;;
19016;SDS011;9641;51.494;6.670;2024-01-30T02:49:39;21.93;;;12.17;;
19016;SDS011;9641;51.494;6.670;2024-01-30T02:52:05;20.77;;;11.33;;
19016;SDS011;9641;51.494;6.670;2024-01-30T02:54:32;22.77;;;11.60;;
19016;SDS011;9641;51.494;6.670;2024-01-30T02:57:00;23.97;;;11.70;;
19016;SDS011;9641;51.494;6.670;2024-01-30T02:59:27;21.60;;;11.37;;
19016;SDS011;9641;51.494;6.670;2024-01-30T03:01:57;22.07;;;12.20;;
19016;SDS011;9641;51.494;6.670;2024-01-30T03:04:26;23.90;;;12.47;;
19016;SDS011;9641;51.494;6.670;2024-01-30T03:06:55;19.23;;;11.07;;
19016;SDS011;9641;51.494;6.670;2024-01-30T03:09:21;22.77;;;11.57;;
19016;SDS011;9641;51.494;6.670;2024-01-30T03:11:48;21.60;;;12.27;;
19016;SDS011;9641;51.494;6.670;2024-01-30T03:14:17;19.87;;;11.83;;
19016;SDS011;9641;51.494;6.670;2024-01-30T03:16:44;19.33;;;11.33;;
19016;SDS011;9641;51.494;6.670;2024-01-30T03:19:10;24.07;;;11.93;;
19016;SDS011;9641;51.494;6.670;2024-01-30T03:21:37;21.33;;;12.43;;
19016;SDS011;9641;51.494;6.670;2024-01-30T03:24:04;20.00;;;11.83;;
19016;SDS011;9641;51.494;6.670;2024-01-30T03:26:31;19.83;;;11.73;;
19016;SDS011;9641;51.494;6.670;2024-01-30T03:28:58;22.27;;;12.20;;
19016;SDS011;9641;51.494;6.670;2024-01-30T03:31:27;18.40;;;11.20;;
19016;SDS011;9641;51.494;6.670;2024-01-30T03:33:54;19.97;;;11.03;;
19016;SDS011;9641;51.494;6.670;2024-01-30T03:36:20;17.23;;;11.10;;
19016;SDS011;9641;51.494;6.670;2024-01-30T03:38:47;18.47;;;10.83;;
19016;SDS011;9641;51.494;6.670;2024-01-30T03:41:14;17.10;;;10.37;;
19016;SDS011;9641;51.494;6.670;2024-01-30T03:43:41;21.03;;;10.87;;
19016;SDS011;9641;51.494;6.670;2024-01-30T03:46:08;19.67;;;10.93;;
19016;SDS011;9641;51.494;6.670;2024-01-30T03:48:37;17.40;;;10.80;;
19016;SDS011;9641;51.494;6.670;2024-01-30T03:51:04;20.10;;;11.20;;
19016;SDS011;9641;51.494;6.670;2024-01-30T03:53:31;20.60;;;10.67;;
19016;SDS011;9641;51.494;6.670;2024-01-30T03:55:58;23.20;;;10.60;;
19016;SDS011;9641;51.494;6.670;2024-01-30T03:58:25;17.23;;;10.33;;
19016;SDS011;9641;51.494;6.670;2024-01-30T04:00:52;18.93;;;10.70;;
19016;SDS011;9641;51.494;6.670;2024-01-30T04:03:18;17.47;;;9.83;;
19016;SDS011;9641;51.494;6.670;2024-01-30T04:05:47;17.33;;;9.83;;
19016;SDS011;9641;51.494;6.670;2024-01-30T04:08:14;20.03;;;9.93;;
19016;SDS011;9641;51.494;6.670;2024-01-30T04:10:41;16.83;;;9.97;;
19016;SDS011;9641;51.494;6.670;2024-01-30T04:13:08;17.60;;;9.90;;
19016;SDS011;9641;51.494;6.670;2024-01-30T04:15:34;18.00;;;9.87;;
19016;SDS011;9641;51.494;6.670;2024-01-30T04:18:02;21.67;;;10.23;;
19016;SDS011;9641;51.494;6.670;2024-01-30T04:20:29;16.10;;;10.40;;
19016;SDS011;9641;51.494;6.670;2024-01-30T04:22:57;21.20;;;10.10;;
19016;SDS011;9641;51.494;6.670;2024-01-30T04:25:24;15.63;;;10.37;;
19016;SDS011;9641;51.494;6.670;2024-01-30T04:27:51;18.17;;;9.37;;
19016;SDS011;9641;51.494;6.670;2024-01-30T04:30:18;15.63;;;10.13;;
19016;SDS011;9641;51.494;6.670;2024-01-30T04:32:45;16.83;;;9.20;;
19016;SDS011;9641;51.494;6.670;2024-01-30T04:35:12;20.47;;;9.97;;
19016;SDS011;9641;51.494;6.670;2024-01-30T04:37:39;18.30;;;10.10;;
19016;SDS011;9641;51.494;6.670;2024-01-30T04:40:08;16.97;;;9.43;;
19016;SDS011;9641;51.494;6.670;2024-01-30T04:42:35;17.47;;;9.87;;
19016;SDS011;9641;51.494;6.670;2024-01-30T04:45:02;15.07;;;9.27;;
19016;SDS011;9641;51.494;6.670;2024-01-30T04:47:29;13.57;;;9.43;;
19016;SDS011;9641;51.494;6.670;2024-01-30T04:49:56;17.40;;;9.27;;
19016;SDS011;9641;51.494;6.670;2024-01-30T04:52:23;19.47;;;10.20;;
19016;SDS011;9641;51.494;6.670;2024-01-30T04:54:50;19.90;;;9.70;;
19016;SDS011;9641;51.494;6.670;2024-01-30T04:57:18;15.47;;;9.70;;
19016;SDS011;9641;51.494;6.670;2024-01-30T04:59:45;17.00;;;10.30;;
19016;SDS011;9641;51.494;6.670;2024-01-30T05:02:12;14.43;;;9.10;;
19016;SDS011;9641;51.494;6.670;2024-01-30T05:04:40;13.23;;;8.63;;
19016;SDS011;9641;51.494;6.670;2024-01-30T05:07:07;19.87;;;8.80;;
19016;SDS011;9641;51.494;6.670;2024-01-30T05:09:34;14.03;;;9.10;;
19016;SDS011;9641;51.494;6.670;2024-01-30T05:12:01;10.70;;;8.07;;
19016;SDS011;9641;51.494;6.670;2024-01-30T05:14:30;15.40;;;8.90;;
19016;SDS011;9641;51.494;6.670;2024-01-30T05:16:56;13.93;;;8.77;;
19016;SDS011;9641;51.494;6.670;2024-01-30T05:19:23;15.63;;;8.53;;
19016;SDS011;9641;51.494;6.670;2024-01-30T05:21:50;14.37;;;8.90;;
19016;SDS011;9641;51.494;6.670;2024-01-30T05:24:18;14.50;;;9.00;;
19016;SDS011;9641;51.494;6.670;2024-01-30T05:26:44;16.70;;;9.60;;
19016;SDS011;9641;51.494;6.670;2024-01-30T05:29:13;14.53;;;9.43;;
19016;SDS011;9641;51.494;6.670;2024-01-30T05:31:41;14.83;;;8.63;;
19016;SDS011;9641;51.494;6.670;2024-01-30T05:34:08;13.93;;;8.77;;
19016;SDS011;9641;51.494;6.670;2024-01-30T05:36:35;14.63;;;8.80;;
19016;SDS011;9641;51.494;6.670;2024-01-30T05:39:02;15.43;;;9.13;;
19016;SDS011;9641;51.494;6.670;2024-01-30T05:41:29;17.57;;;9.27;;
19016;SDS011;9641;51.494;6.670;2024-01-30T05:43:56;13.07;;;8.43;;
19016;SDS011;9641;51.494;6.670;2024-01-30T05:46:23;13.57;;;9.37;;
19016;SDS011;9641;51.494;6.670;2024-01-30T05:48:51;15.10;;;9.07;;
19016;SDS011;9641;51.494;6.670;2024-01-30T05:51:18;18.27;;;9.10;;
19016;SDS011;9641;51.494;6.670;2024-01-30T05:53:45;14.07;;;9.50;;
19016;SDS011;9641;51.494;6.670;2024-01-30T05:56:12;16.60;;;9.30;;
19016;SDS011;9641;51.494;6.670;2024-01-30T05:58:40;13.20;;;8.67;;
19016;SDS011;9641;51.494;6.670;2024-01-30T06:01:08;16.73;;;9.87;;
19016;SDS011;9641;51.494;6.670;2024-01-30T06:03:35;16.20;;;9.60;;
19016;SDS011;9641;51.494;6.670;2024-01-30T06:06:03;13.13;;;9.10;;
19016;SDS011;9641;51.494;6.670;2024-01-30T06:08:31;15.73;;;10.00;;
19016;SDS011;9641;51.494;6.670;2024-01-30T06:10:58;17.53;;;10.03;;
19016;SDS011;9641;51.494;6.670;2024-01-30T06:13:25;15.47;;;9.33;;
19016;SDS011;9641;51.494;6.670;2024-01-30T06:15:52;15.50;;;10.00;;
19016;SDS011;9641;51.494;6.670;2024-01-30T06:18:19;16.00;;;10.33;;
19016;SDS011;9641;51.494;6.670;2024-01-30T06:20:47;19.17;;;10.23;;
19016;SDS011;9641;51.494;6.670;2024-01-30T06:23:15;18.97;;;9.67;;
19016;SDS011;9641;51.494;6.670;2024-01-30T06:25:43;17.43;;;10.20;;
19016;SDS011;9641;51.494;6.670;2024-01-30T06:28:16;15.00;;;9.23;;
19016;SDS011;9641;51.494;6.670;2024-01-30T06:30:45;14.13;;;9.67;;
19016;SDS011;9641;51.494;6.670;2024-01-30T06:33:12;14.23;;;9.43;;
19016;SDS011;9641;51.494;6.670;2024-01-30T06:35:59;21.53;;;10.10;;
19016;SDS011;9641;51.494;6.670;2024-01-30T06:38:29;15.93;;;9.87;;
19016;SDS011;9641;51.494;6.670;2024-01-30T06:40:59;22.13;;;10.17;;
19016;SDS011;9641;51.494;6.670;2024-01-30T06:43:26;21.80;;;10.70;;
19016;SDS011;9641;51.494;6.670;2024-01-30T06:45:53;22.37;;;11.50;;
19016;SDS011;9641;51.494;6.670;2024-01-30T06:48:22;22.17;;;10.97;;
19016;SDS011;9641;51.494;6.670;2024-01-30T06:50:49;27.80;;;10.87;;
19016;SDS011;9641;51.494;6.670;2024-01-30T06:53:17;17.23;;;10.10;;
19016;SDS011;9641;51.494;6.670;2024-01-30T06:55:45;18.27;;;10.30;;
19016;SDS011;9641;51.494;6.670;2024-01-30T06:58:13;17.53;;;9.57;;
19016;SDS011;9641;51.494;6.670;2024-01-30T07:00:40;24.63;;;10.13;;
19016;SDS011;9641;51.494;6.670;2024-01-30T07:03:14;18.10;;;9.93;;
19016;SDS011;9641;51.494;6.670;2024-01-30T07:05:45;17.03;;;10.33;;
19016;SDS011;9641;51.494;6.670;2024-01-30T07:08:12;18.73;;;9.90;;
19016;SDS011;9641;51.494;6.670;2024-01-30T07:14:01;16.07;;;9.93;;
19016;SDS011;9641;51.494;6.670;2024-01-30T07:16:30;15.63;;;10.33;;
19016;SDS011;9641;51.494;6.670;2024-01-30T07:18:57;16.23;;;9.57;;
19016;SDS011;9641;51.494;6.670;2024-01-30T07:21:25;18.37;;;11.00;;
19016;SDS011;9641;51.494;6.670;2024-01-30T07:23:53;20.30;;;9.83;;
19016;SDS011;9641;51.494;6.670;2024-01-30T07:26:20;13.67;;;9.20;;
19016;SDS011;9641;51.494;6.670;2024-01-30T07:28:47;16.67;;;9.50;;
19016;SDS011;9641;51.494;6.670;2024-01-30T07:31:16;16.03;;;9.30;;
19016;SDS011;9641;51.494;6.670;2024-01-30T07:33:46;13.97;;;9.20;;
19016;SDS011;9641;51.494;6.670;2024-01-30T07:36:13;16.87;;;8.77;;
19016;SDS011;9641;51.494;6.670;2024-01-30T07:38:40;20.40;;;9.03;;
19016;SDS011;9641;51.494;6.670;2024-01-30T07:41:08;16.10;;;9.70;;
19016;SDS011;9641;51.494;6.670;2024-01-30T07:46:54;14.73;;;8.87;;
19016;SDS011;9641;51.494;6.670;2024-01-30T07:49:28;15.23;;;9.13;;
19016;SDS011;9641;51.494;6.670;2024-01-30T07:58:37;17.63;;;9.43;;
19016;SDS011;9641;51.494;6.670;2024-01-30T08:01:04;12.00;;;8.77;;
19016;SDS011;9641;51.494;6.670;2024-01-30T08:03:33;13.77;;;9.07;;
19016;SDS011;9641;51.494;6.670;2024-01-30T08:06:01;16.10;;;8.50;;
19016;SDS011;9641;51.494;6.670;2024-01-30T08:08:28;13.40;;;8.67;;
19016;SDS011;9641;51.494;6.670;2024-01-30T08:13:56;14.70;;;8.57;;
19016;SDS011;9641;51.494;6.670;2024-01-30T08:16:25;17.63;;;9.07;;
19016;SDS011;9641;51.494;6.670;2024-01-30T08:19:08;14.97;;;8.90;;
19016;SDS011;9641;51.494;6.670;2024-01-30T08:21:35;15.80;;;8.40;;
19016;SDS011;9641;51.494;6.670;2024-01-30T08:24:03;14.17;;;9.00;;
19016;SDS011;9641;51.494;6.670;2024-01-30T08:26:32;12.93;;;8.27;;
19016;SDS011;9641;51.494;6.670;2024-01-30T08:29:00;15.50;;;8.50;;
19016;SDS011;9641;51.494;6.670;2024-01-30T08:31:28;14.53;;;8.67;;
19016;SDS011;9641;51.494;6.670;2024-01-30T08:33:55;15.77;;;8.60;;
19016;SDS011;9641;51.494;6.670;2024-01-30T08:36:24;13.77;;;8.53;;
19016;SDS011;9641;51.494;6.670;2024-01-30T08:38:51;14.23;;;8.17;;
19016;SDS011;9641;51.494;6.670;2024-01-30T08:41:21;16.43;;;9.23;;
19016;SDS011;9641;51.494;6.670;2024-01-30T08:43:52;15.33;;;8.73;;
19016;SDS011;9641;51.494;6.670;2024-01-30T08:46:36;15.23;;;8.57;;
19016;SDS011;9641;51.494;6.670;2024-01-30T08:49:07;14.30;;;8.50;;
19016;SDS011;9641;51.494;6.670;2024-01-30T08:51:36;14.60;;;9.30;;
19016;SDS011;9641;51.494;6.670;2024-01-30T08:54:03;14.87;;;8.40;;
19016;SDS011;9641;51.494;6.670;2024-01-30T08:56:33;15.63;;;8.40;;
19016;SDS011;9641;51.494;6.670;2024-01-30T08:59:18;15.47;;;8.57;;
19016;SDS011;9641;51.494;6.670;2024-01-30T09:01:45;14.50;;;8.97;;
19016;SDS011;9641;51.494;6.670;2024-01-30T09:04:13;15.50;;;8.13;;
19016;SDS011;9641;51.494;6.670;2024-01-30T09:06:41;16.67;;;9.10;;
19016;SDS011;9641;51.494;6.670;2024-01-30T09:09:08;19.53;;;9.30;;
19016;SDS011;9641;51.494;6.670;2024-01-30T09:11:36;15.37;;;9.13;;
19016;SDS011;9641;51.494;6.670;2024-01-30T09:14:03;16.87;;;8.83;;
19016;SDS011;9641;51.494;6.670;2024-01-30T09:16:30;20.77;;;10.00;;
19016;SDS011;9641;51.494;6.670;2024-01-30T09:18:57;17.43;;;9.50;;
19016;SDS011;9641;51.494;6.670;2024-01-30T09:21:24;18.33;;;10.07;;
19016;SDS011;9641;51.494;6.670;2024-01-30T09:23:54;24.13;;;10.93;;
19016;SDS011;9641;51.494;6.670;2024-01-30T09:26:21;16.77;;;10.37;;
19016;SDS011;9641;51.494;6.670;2024-01-30T09:28:48;18.87;;;10.80;;
19016;SDS011;9641;51.494;6.670;2024-01-30T09:31:15;16.80;;;10.87;;
19016;SDS011;9641;51.494;6.670;2024-01-30T09:33:42;17.07;;;9.90;;
19016;SDS011;9641;51.494;6.670;2024-01-30T09:36:12;17.63;;;10.70;;
19016;SDS011;9641;51.494;6.670;2024-01-30T09:38:43;16.70;;;10.20;;
19016;SDS011;9641;51.494;6.670;2024-01-30T09:41:12;17.67;;;10.13;;
19016;SDS011;9641;51.494;6.670;2024-01-30T09:43:39;14.63;;;9.80;;
19016;SDS011;9641;51.494;6.670;2024-01-30T09:46:10;17.03;;;9.73;;
19016;SDS011;9641;51.494;6.670;2024-01-30T09:48:49;14.63;;;9.23;;
19016;SDS011;9641;51.494;6.670;2024-01-30T09:51:20;16.80;;;10.13;;
19016;SDS011;9641;51.494;6.670;2024-01-30T09:53:48;18.90;;;9.70;;
19016;SDS011;9641;51.494;6.670;2024-01-30T09:56:17;20.43;;;10.67;;
19016;SDS011;9641;51.494;6.670;2024-01-30T09:58:46;17.57;;;9.17;;
19016;SDS011;9641;51.494;6.670;2024-01-30T10:01:13;19.20;;;10.37;;
19016;SDS011;9641;51.494;6.670;2024-01-30T10:03:44;15.47;;;9.43;;
19016;SDS011;9641;51.494;6.670;2024-01-30T10:06:11;17.47;;;9.83;;
19016;SDS011;9641;51.494;6.670;2024-01-30T10:08:38;20.43;;;10.40;;
19016;SDS011;9641;51.494;6.670;2024-01-30T10:11:06;17.10;;;10.47;;
19016;SDS011;9641;51.494;6.670;2024-01-30T10:13:35;18.57;;;10.77;;
19016;SDS011;9641;51.494;6.670;2024-01-30T10:16:02;16.23;;;9.73;;
19016;SDS011;9641;51.494;6.670;2024-01-30T10:18:31;15.43;;;9.80;;
19016;SDS011;9641;51.494;6.670;2024-01-30T10:21:02;15.97;;;10.13;;
19016;SDS011;9641;51.494;6.670;2024-01-30T10:23:29;18.40;;;11.60;;
19016;SDS011;9641;51.494;6.670;2024-01-30T10:25:57;16.77;;;10.57;;
19016;SDS011;9641;51.494;6.670;2024-01-30T10:28:26;17.90;;;10.50;;
19016;SDS011;9641;51.494;6.670;2024-01-30T10:31:01;16.47;;;10.30;;
19016;SDS011;9641;51.494;6.670;2024-01-30T10:33:29;18.47;;;10.40;;
19016;SDS011;9641;51.494;6.670;2024-01-30T10:36:00;20.60;;;11.13;;
19016;SDS011;9641;51.494;6.670;2024-01-30T10:38:32;15.10;;;10.03;;
19016;SDS011;9641;51.494;6.670;2024-01-30T10:41:11;21.03;;;10.40;;
19016;SDS011;9641;51.494;6.670;2024-01-30T10:43:42;22.40;;;10.40;;
19016;SDS011;9641;51.494;6.670;2024-01-30T10:46:19;21.30;;;9.97;;
19016;SDS011;9641;51.494;6.670;2024-01-30T10:48:51;16.77;;;9.83;;
19016;SDS011;9641;51.494;6.670;2024-01-30T10:51:27;14.63;;;9.30;;
19016;SDS011;9641;51.494;6.670;2024-01-30T10:53:55;16.80;;;8.83;;
19016;SDS011;9641;51.494;6.670;2024-01-30T10:56:23;15.47;;;8.63;;
19016;SDS011;9641;51.494;6.670;2024-01-30T10:58:51;17.17;;;8.73;;
19016;SDS011;9641;51.494;6.670;2024-01-30T11:01:22;15.87;;;8.27;;
19016;SDS011;9641;51.494;6.670;2024-01-30T11:03:50;13.37;;;8.50;;
19016;SDS011;9641;51.494;6.670;2024-01-30T11:06:18;14.73;;;7.53;;
19016;SDS011;9641;51.494;6.670;2024-01-30T11:08:59;21.87;;;8.43;;
19016;SDS011;9641;51.494;6.670;2024-01-30T11:11:27;11.17;;;7.57;;
19016;SDS011;9641;51.494;6.670;2024-01-30T11:14:00;18.93;;;8.47;;
19016;SDS011;9641;51.494;6.670;2024-01-30T11:16:32;17.10;;;8.27;;
19016;SDS011;9641;51.494;6.670;2024-01-30T11:19:00;11.33;;;7.20;;
19016;SDS011;9641;51.494;6.670;2024-01-30T11:21:27;11.60;;;7.30;;
19016;SDS011;9641;51.494;6.670;2024-01-30T11:23:55;13.90;;;7.83;;
19016;SDS011;9641;51.494;6.670;2024-01-30T11:26:24;12.20;;;7.43;;
19016;SDS011;9641;51.494;6.670;2024-01-30T11:28:55;11.30;;;7.07;;
19016;SDS011;9641;51.494;6.670;2024-01-30T11:31:23;15.30;;;7.03;;
19016;SDS011;9641;51.494;6.670;2024-01-30T11:33:54;14.63;;;7.60;;
19016;SDS011;9641;51.494;6.670;2024-01-30T11:36:24;14.90;;;8.03;;
19016;SDS011;9641;51.494;6.670;2024-01-30T11:38:56;12.90;;;7.40;;
19016;SDS011;9641;51.494;6.670;2024-01-30T11:41:23;15.83;;;7.90;;
19016;SDS011;9641;51.494;6.670;2024-01-30T11:43:51;15.90;;;7.67;;
19016;SDS011;9641;51.494;6.670;2024-01-30T11:46:19;10.50;;;7.53;;
19016;SDS011;9641;51.494;6.670;2024-01-30T11:48:52;11.73;;;7.40;;
19016;SDS011;9641;51.494;6.670;2024-01-30T11:51:21;15.33;;;7.73;;
19016;SDS011;9641;51.494;6.670;2024-01-30T11:53:54;14.17;;;8.30;;
19016;SDS011;9641;51.494;6.670;2024-01-30T11:56:21;12.60;;;7.80;;
19016;SDS011;9641;51.494;6.670;2024-01-30T11:58:52;12.27;;;7.90;;
19016;SDS011;9641;51.494;6.670;2024-01-30T12:01:19;19.00;;;8.40;;
19016;SDS011;9641;51.494;6.670;2024-01-30T12:03:49;11.10;;;7.03;;
19016;SDS011;9641;51.494;6.670;2024-01-30T12:06:18;11.37;;;7.57;;
19016;SDS011;9641;51.494;6.670;2024-01-30T12:08:55;18.77;;;7.97;;
19016;SDS011;9641;51.494;6.670;2024-01-30T12:11:23;9.10;;;6.93;;
19016;SDS011;9641;51.494;6.670;2024-01-30T12:13:51;14.40;;;7.53;;
19016;SDS011;9641;51.494;6.670;2024-01-30T12:16:20;15.63;;;6.70;;
19016;SDS011;9641;51.494;6.670;2024-01-30T12:18:48;15.27;;;7.80;;
19016;SDS011;9641;51.494;6.670;2024-01-30T12:21:18;13.60;;;7.60;;
19016;SDS011;9641;51.494;6.670;2024-01-30T12:23:45;16.40;;;8.63;;
19016;SDS011;9641;51.494;6.670;2024-01-30T12:26:14;13.60;;;8.20;;
19016;SDS011;9641;51.494;6.670;2024-01-30T12:28:47;18.60;;;7.93;;
19016;SDS011;9641;51.494;6.670;2024-01-30T12:31:15;17.03;;;9.07;;
19016;SDS011;9641;51.494;6.670;2024-01-30T12:33:42;12.23;;;7.87;;
19016;SDS011;9641;51.494;6.670;2024-01-30T12:36:09;13.37;;;7.83;;
19016;SDS011;9641;51.494;6.670;2024-01-30T12:38:40;14.50;;;8.10;;
19016;SDS011;9641;51.494;6.670;2024-01-30T12:41:07;18.03;;;7.70;;
19016;SDS011;9641;51.494;6.670;2024-01-30T12:43:35;13.13;;;7.70;;
19016;SDS011;9641;51.494;6.670;2024-01-30T12:46:03;14.07;;;8.30;;
19016;SDS011;9641;51.494;6.670;2024-01-30T12:48:31;14.90;;;7.63;;
19016;SDS011;9641;51.494;6.670;2024-01-30T12:50:58;14.37;;;8.17;;
19016;SDS011;9641;51.494;6.670;2024-01-30T12:53:26;10.50;;;7.30;;
19016;SDS011;9641;51.494;6.670;2024-01-30T12:55:58;12.17;;;7.43;;
19016;SDS011;9641;51.494;6.670;2024-01-30T12:58:26;12.37;;;7.40;;
19016;SDS011;9641;51.494;6.670;2024-01-30T13:00:54;12.57;;;8.70;;
19016;SDS011;9641;51.494;6.670;2024-01-30T13:03:22;12.80;;;7.90;;
19016;SDS011;9641;51.494;6.670;2024-01-30T13:05:49;12.93;;;8.10;;
19016;SDS011;9641;51.494;6.670;2024-01-30T13:08:17;12.63;;;6.97;;
19016;SDS011;9641;51.494;6.670;2024-01-30T13:10:44;15.40;;;7.57;;
19016;SDS011;9641;51.494;6.670;2024-01-30T13:13:13;14.17;;;7.63;;
19016;SDS011;9641;51.494;6.670;2024-01-30T13:15:40;14.73;;;7.30;;
19016;SDS011;9641;51.494;6.670;2024-01-30T13:18:14;14.57;;;7.67;;
19016;SDS011;9641;51.494;6.670;2024-01-30T13:20:42;14.00;;;7.20;;
19016;SDS011;9641;51.494;6.670;2024-01-30T13:23:09;12.17;;;7.57;;
19016;SDS011;9641;51.494;6.670;2024-01-30T13:25:36;13.97;;;7.10;;
19016;SDS011;9641;51.494;6.670;2024-01-30T13:28:03;15.50;;;7.47;;
19016;SDS011;9641;51.494;6.670;2024-01-30T13:30:32;12.77;;;7.93;;
19016;SDS011;9641;51.494;6.670;2024-01-30T13:32:59;18.13;;;7.23;;
19016;SDS011;9641;51.494;6.670;2024-01-30T13:35:26;13.10;;;6.67;;
19016;SDS011;9641;51.494;6.670;2024-01-30T13:37:53;13.60;;;7.00;;
19016;SDS011;9641;51.494;6.670;2024-01-30T13:40:20;11.77;;;6.87;;
19016;SDS011;9641;51.494;6.670;2024-01-30T13:42:48;14.93;;;6.57;;
19016;SDS011;9641;51.494;6.670;2024-01-30T13:45:15;12.63;;;7.20;;
19016;SDS011;9641;51.494;6.670;2024-01-30T13:47:44;13.00;;;6.80;;
19016;SDS011;9641;51.494;6.670;2024-01-30T13:50:11;15.93;;;7.93;;
19016;SDS011;9641;51.494;6.670;2024-01-30T13:52:40;13.13;;;6.63;;
19016;SDS011;9641;51.494;6.670;2024-01-30T13:55:07;13.53;;;6.10;;
19016;SDS011;9641;51.494;6.670;2024-01-30T13:57:34;15.73;;;6.57;;
19016;SDS011;9641;51.494;6.670;2024-01-30T14:00:02;10.00;;;5.97;;
19016;SDS011;9641;51.494;6.670;2024-01-30T14:02:38;10.03;;;6.60;;
19016;SDS011;9641;51.494;6.670;2024-01-30T14:05:06;12.60;;;6.93;;
19016;SDS011;9641;51.494;6.670;2024-01-30T14:07:35;10.67;;;5.87;;
19016;SDS011;9641;51.494;6.670;2024-01-30T14:10:06;11.13;;;5.97;;
19016;SDS011;9641;51.494;6.670;2024-01-30T14:12:33;10.73;;;5.90;;
19016;SDS011;9641;51.494;6.670;2024-01-30T14:15:03;11.87;;;6.20;;
19016;SDS011;9641;51.494;6.670;2024-01-30T14:17:31;9.30;;;5.63;;
19016;SDS011;9641;51.494;6.670;2024-01-30T14:19:58;10.47;;;5.83;;
19016;SDS011;9641;51.494;6.670;2024-01-30T14:22:28;9.80;;;5.97;;
19016;SDS011;9641;51.494;6.670;2024-01-30T14:24:55;14.43;;;7.40;;
19016;SDS011;9641;51.494;6.670;2024-01-30T14:27:23;12.23;;;5.43;;
19016;SDS011;9641;51.494;6.670;2024-01-30T14:29:50;8.90;;;4.13;;
19016;SDS011;9641;51.494;6.670;2024-01-30T14:32:16;7.13;;;4.10;;
19016;SDS011;9641;51.494;6.670;2024-01-30T14:34:43;9.73;;;4.20;;
19016;SDS011;9641;51.494;6.670;2024-01-30T14:37:10;11.17;;;4.17;;
19016;SDS011;9641;51.494;6.670;2024-01-30T14:39:39;5.50;;;3.70;;
19016;SDS011;9641;51.494;6.670;2024-01-30T14:42:06;12.73;;;4.63;;
19016;SDS011;9641;51.494;6.670;2024-01-30T14:44:34;10.17;;;3.83;;
19016;SDS011;9641;51.494;6.670;2024-01-30T14:47:02;7.93;;;3.40;;
19016;SDS011;9641;51.494;6.670;2024-01-30T14:49:30;4.23;;;3.40;;
19016;SDS011;9641;51.494;6.670;2024-01-30T14:51:57;9.43;;;3.50;;
19016;SDS011;9641;51.494;6.670;2024-01-30T14:54:25;9.37;;;3.50;;
19016;SDS011;9641;51.494;6.670;2024-01-30T14:56:54;3.47;;;2.87;;
19016;SDS011;9641;51.494;6.670;2024-01-30T14:59:21;7.17;;;2.90;;
19016;SDS011;9641;51.494;6.670;2024-01-30T15:01:48;4.33;;;2.60;;
19016;SDS011;9641;51.494;6.670;2024-01-30T15:04:15;5.83;;;2.60;;
19016;SDS011;9641;51.494;6.670;2024-01-30T15:06:41;4.67;;;2.20;;